createdAt,value
2015-06-16T00:00:02.708Z,95895
2015-06-16T00:00:21.226Z,95889
2015-06-16T00:00:39.555Z,95891
2015-06-16T00:00:57.851Z,95896
2015-06-16T00:01:16.195Z,95902
2015-06-16T00:01:34.072Z,95888
2015-06-16T00:01:52.400Z,95897
2015-06-16T00:02:10.682Z,95889
2015-06-16T00:02:29.106Z,95889
2015-06-16T00:02:47.575Z,95894
2015-06-16T00:03:06.138Z,95895
2015-06-16T00:03:24.716Z,95893
2015-06-16T00:03:43.171Z,95896
2015-06-16T00:04:01.671Z,95893
2015-06-16T00:04:19.999Z,95893
2015-06-16T00:04:38.440Z,95896
2015-06-16T00:04:56.908Z,95901
2015-06-16T00:05:15.236Z,95899
2015-06-16T00:05:33.643Z,95898
2015-06-16T00:05:51.942Z,95901
2015-06-16T00:06:10.410Z,95899
2015-06-16T00:06:28.770Z,95894
2015-06-16T00:06:47.131Z,95897
2015-06-16T00:07:05.444Z,95903
2015-06-16T00:07:23.756Z,95904
2015-06-16T00:07:42.053Z,95901
2015-06-16T00:08:00.415Z,95895
2015-06-16T00:08:18.853Z,95899
2015-06-16T00:08:37.556Z,95887
2015-06-16T00:08:56.167Z,95893
2015-06-16T00:09:14.870Z,95892
2015-06-16T00:09:33.417Z,95897
2015-06-16T00:09:51.917Z,95896
2015-06-16T00:10:10.327Z,95883
2015-06-16T00:10:29.139Z,95892
2015-06-16T00:10:47.686Z,95892
2015-06-16T00:11:06.033Z,95891
2015-06-16T00:11:24.408Z,95900
2015-06-16T00:11:42.955Z,95889
2015-06-16T00:12:01.392Z,95901
2015-06-16T00:12:19.941Z,95894
2015-06-16T00:12:38.269Z,95897
2015-06-16T00:12:56.707Z,95895
2015-06-16T00:13:14.366Z,95892
2015-06-16T00:13:32.866Z,95897
2015-06-16T00:13:51.163Z,95900
2015-06-16T00:14:09.460Z,95889
2015-06-16T00:14:27.790Z,95894
2015-06-16T00:14:46.133Z,95886
2015-06-16T00:15:04.477Z,95900
2015-06-16T00:15:22.808Z,95886
2015-06-16T00:15:41.308Z,95894
2015-06-16T00:15:59.777Z,95893
2015-06-16T00:16:18.136Z,95890
2015-06-16T00:16:36.498Z,95890
2015-06-16T00:16:54.920Z,95892
2015-06-16T00:17:13.248Z,95897
2015-06-16T00:17:31.610Z,95897
2015-06-16T00:17:49.923Z,95894
2015-06-16T00:18:08.235Z,95899
2015-06-16T00:18:26.595Z,95896
2015-06-16T00:18:45.034Z,95893
2015-06-16T00:19:03.706Z,95893
2015-06-16T00:19:22.050Z,95893
2015-06-16T00:19:40.583Z,95896
2015-06-16T00:19:59.114Z,95887
2015-06-16T00:20:17.520Z,95893
2015-06-16T00:20:36.226Z,95891
2015-06-16T00:20:54.585Z,95900
2015-06-16T00:21:12.429Z,95891
2015-06-16T00:21:30.819Z,95898
2015-06-16T00:21:49.307Z,95892
2015-06-16T00:22:07.807Z,95894
2015-06-16T00:22:26.197Z,95892
2015-06-16T00:22:45.012Z,95889
2015-06-16T00:23:03.574Z,95889
2015-06-16T00:23:21.887Z,95887
2015-06-16T00:23:40.559Z,95890
2015-06-16T00:23:58.952Z,95896
2015-06-16T00:24:17.249Z,95879
2015-06-16T00:24:35.515Z,95893
2015-06-16T00:24:53.562Z,95893
2015-06-16T00:25:12.127Z,95893
2015-06-16T00:25:30.674Z,95895
2015-06-16T00:25:49.065Z,95892
2015-06-16T00:26:07.457Z,95888
2015-06-16T00:26:26.176Z,95899
2015-06-16T00:26:44.770Z,95896
2015-06-16T00:27:03.522Z,95899
2015-06-16T00:27:21.787Z,95902
2015-06-16T00:27:39.569Z,95888
2015-06-16T00:27:58.287Z,95893
2015-06-16T00:28:16.681Z,95896
2015-06-16T00:28:35.119Z,95891
2015-06-16T00:28:53.634Z,95888
2015-06-16T00:29:12.150Z,95891
2015-06-16T00:29:30.622Z,95886
2015-06-16T00:29:48.918Z,95891
2015-06-16T00:30:07.450Z,95894
2015-06-16T00:30:25.749Z,95895
2015-06-16T00:30:44.061Z,95894
2015-06-16T00:31:02.358Z,95883
2015-06-16T00:31:20.733Z,95886
2015-06-16T00:31:39.267Z,95896
2015-06-16T00:31:57.861Z,95888
2015-06-16T00:32:16.142Z,95895
2015-06-16T00:32:34.425Z,95887
2015-06-16T00:32:52.722Z,95902
2015-06-16T00:33:11.113Z,95885
2015-06-16T00:33:29.613Z,95882
2015-06-16T00:33:48.147Z,95894
2015-06-16T00:34:06.444Z,95892
2015-06-16T00:34:24.803Z,95886
2015-06-16T00:34:43.290Z,95892
2015-06-16T00:35:01.680Z,95892
2015-06-16T00:35:19.962Z,95895
2015-06-16T00:35:38.399Z,95900
2015-06-16T00:35:56.729Z,95886
2015-06-16T00:36:15.198Z,95889
2015-06-16T00:36:33.526Z,95891
2015-06-16T00:36:51.951Z,95896
2015-06-16T00:37:10.279Z,95893
2015-06-16T00:37:28.795Z,95889
2015-06-16T00:37:47.139Z,95893
2015-06-16T00:38:05.626Z,95895
2015-06-16T00:38:24.063Z,95900
2015-06-16T00:38:42.454Z,95880
2015-06-16T00:39:00.847Z,95885
2015-06-16T00:39:19.409Z,95888
2015-06-16T00:39:37.831Z,95894
2015-06-16T00:39:56.206Z,95885
2015-06-16T00:40:14.553Z,95897
2015-06-16T00:40:33.428Z,95891
2015-06-16T00:40:51.709Z,95892
2015-06-16T00:41:10.164Z,95889
2015-06-16T00:41:28.508Z,95887
2015-06-16T00:41:46.914Z,95893
2015-06-16T00:42:05.320Z,95884
2015-06-16T00:42:23.698Z,95896
2015-06-16T00:42:42.277Z,95890
2015-06-16T00:43:00.886Z,95895
2015-06-16T00:43:19.419Z,95898
2015-06-16T00:43:37.310Z,95884
2015-06-16T00:43:55.575Z,95890
2015-06-16T00:44:13.404Z,95879
2015-06-16T00:44:31.907Z,95891
2015-06-16T00:44:50.391Z,95882
2015-06-16T00:45:08.703Z,95893
2015-06-16T00:45:27.079Z,95882
2015-06-16T00:45:45.611Z,95891
2015-06-16T00:46:04.095Z,95891
2015-06-16T00:46:22.376Z,95891
2015-06-16T00:46:41.004Z,95895
2015-06-16T00:46:59.473Z,95885
2015-06-16T00:47:18.020Z,95891
2015-06-16T00:47:35.960Z,95885
2015-06-16T00:47:54.429Z,95893
2015-06-16T00:48:12.929Z,95893
2015-06-16T00:48:31.226Z,95896
2015-06-16T00:48:49.728Z,95887
2015-06-16T00:49:08.212Z,95892
2015-06-16T00:49:26.572Z,95885
2015-06-16T00:49:45.106Z,95891
2015-06-16T00:50:03.559Z,95896
2015-06-16T00:50:21.872Z,95899
2015-06-16T00:50:40.606Z,95891
2015-06-16T00:50:59.061Z,95882
2015-06-16T00:51:17.342Z,95885
2015-06-16T00:51:35.686Z,95898
2015-06-16T00:51:54.205Z,95886
2015-06-16T00:52:12.595Z,95897
2015-06-16T00:52:30.955Z,95895
2015-06-16T00:52:49.689Z,95893
2015-06-16T00:53:07.988Z,95882
2015-06-16T00:53:26.441Z,95887
2015-06-16T00:53:44.972Z,95893
2015-06-16T00:54:03.257Z,95887
2015-06-16T00:54:21.085Z,95884
2015-06-16T00:54:39.475Z,95893
2015-06-16T00:54:57.866Z,95887
2015-06-16T00:55:16.290Z,95893
2015-06-16T00:55:34.806Z,95899
2015-06-16T00:55:53.087Z,95899
2015-06-16T00:56:11.387Z,95889
2015-06-16T00:56:29.762Z,95895
2015-06-16T00:56:48.090Z,95902
2015-06-16T00:57:06.496Z,95905
2015-06-16T00:57:25.045Z,95894
2015-06-16T00:57:43.654Z,95897
2015-06-16T00:58:02.311Z,95894
2015-06-16T00:58:20.844Z,95882
2015-06-16T00:58:39.469Z,95893
2015-06-16T00:58:57.984Z,95899
2015-06-16T00:59:16.313Z,95891
2015-06-16T00:59:35.097Z,95897
2015-06-16T00:59:53.800Z,95890
2015-06-16T01:00:12.237Z,95898
2015-06-16T01:00:30.522Z,95890
2015-06-16T01:00:49.147Z,95893
2015-06-16T01:01:07.475Z,95896
2015-06-16T01:01:26.053Z,95896
2015-06-16T01:01:44.524Z,95901
2015-06-16T01:02:02.805Z,95893
2015-06-16T01:02:21.242Z,95899
2015-06-16T01:02:39.823Z,95890
2015-06-16T01:02:58.432Z,95891
2015-06-16T01:03:16.760Z,95897
2015-06-16T01:03:35.104Z,95894
2015-06-16T01:03:53.701Z,95896
2015-06-16T01:04:12.216Z,95896
2015-06-16T01:04:30.701Z,95898
2015-06-16T01:04:49.547Z,95896
2015-06-16T01:05:07.985Z,95896
2015-06-16T01:05:26.750Z,95891
2015-06-16T01:05:45.219Z,95897
2015-06-16T01:06:03.502Z,95894
2015-06-16T01:06:21.846Z,95886
2015-06-16T01:06:40.424Z,95891
2015-06-16T01:06:59.067Z,95885
2015-06-16T01:07:17.504Z,95885
2015-06-16T01:07:36.004Z,95890
2015-06-16T01:07:54.348Z,95899
2015-06-16T01:08:12.101Z,95896
2015-06-16T01:08:30.414Z,95882
2015-06-16T01:08:48.226Z,95896
2015-06-16T01:09:06.792Z,95891
2015-06-16T01:09:25.229Z,95893
2015-06-16T01:09:44.026Z,95889
2015-06-16T01:10:02.464Z,95884
2015-06-16T01:10:20.872Z,95892
2015-06-16T01:10:39.372Z,95905
2015-06-16T01:10:57.778Z,95898
2015-06-16T01:11:16.280Z,95886
2015-06-16T01:11:34.671Z,95883
2015-06-16T01:11:52.968Z,95882
2015-06-16T01:12:11.436Z,95895
2015-06-16T01:12:29.751Z,95886
2015-06-16T01:12:48.235Z,95893
2015-06-16T01:13:06.516Z,95889
2015-06-16T01:13:24.894Z,95889
2015-06-16T01:13:43.519Z,95891
2015-06-16T01:14:01.863Z,95897
2015-06-16T01:14:20.410Z,95891
2015-06-16T01:14:39.163Z,95897
2015-06-16T01:14:57.679Z,95894
2015-06-16T01:15:16.288Z,95883
2015-06-16T01:15:34.728Z,95881
2015-06-16T01:15:53.399Z,95884
2015-06-16T01:16:11.774Z,95890
2015-06-16T01:16:30.181Z,95887
2015-06-16T01:16:48.573Z,95887
2015-06-16T01:17:07.026Z,95888
2015-06-16T01:17:25.526Z,95889
2015-06-16T01:17:43.920Z,95885
2015-06-16T01:18:02.498Z,95891
2015-06-16T01:18:20.936Z,95880
2015-06-16T01:18:39.311Z,95888
2015-06-16T01:18:57.626Z,95896
2015-06-16T01:19:16.111Z,95888
2015-06-16T01:19:34.579Z,95894
2015-06-16T01:19:53.050Z,95883
2015-06-16T01:20:11.409Z,95891
2015-06-16T01:20:29.191Z,95888
2015-06-16T01:20:47.956Z,95885
2015-06-16T01:21:06.349Z,95890
2015-06-16T01:21:24.677Z,95891
2015-06-16T01:21:43.005Z,95887
2015-06-16T01:22:01.602Z,95890
2015-06-16T01:22:20.118Z,95893
2015-06-16T01:22:38.383Z,95885
2015-06-16T01:22:56.868Z,95884
2015-06-16T01:23:15.151Z,95880
2015-06-16T01:23:33.620Z,95892
2015-06-16T01:23:51.979Z,95895
2015-06-16T01:24:10.513Z,95888
2015-06-16T01:24:28.857Z,95882
2015-06-16T01:24:47.185Z,95882
2015-06-16T01:25:05.623Z,95892
2015-06-16T01:25:23.609Z,95897
2015-06-16T01:25:42.171Z,95886
2015-06-16T01:26:00.750Z,95887
2015-06-16T01:26:19.174Z,95892
2015-06-16T01:26:37.534Z,95883
2015-06-16T01:26:55.924Z,95895
2015-06-16T01:27:14.456Z,95884
2015-06-16T01:27:33.006Z,95892
2015-06-16T01:27:51.537Z,95889
2015-06-16T01:28:10.162Z,95883
2015-06-16T01:28:28.554Z,95886
2015-06-16T01:28:47.086Z,95883
2015-06-16T01:29:05.351Z,95869
2015-06-16T01:29:23.789Z,95886
2015-06-16T01:29:42.119Z,95885
2015-06-16T01:29:59.900Z,95877
2015-06-16T01:30:18.431Z,95889
2015-06-16T01:30:36.903Z,95883
2015-06-16T01:30:55.309Z,95886
2015-06-16T01:31:13.731Z,95880
2015-06-16T01:31:32.231Z,95875
2015-06-16T01:31:50.593Z,95886
2015-06-16T01:32:08.874Z,95881
2015-06-16T01:32:27.155Z,95879
2015-06-16T01:32:45.455Z,95881
2015-06-16T01:33:03.268Z,95887
2015-06-16T01:33:20.924Z,95892
2015-06-16T01:33:39.346Z,95884
2015-06-16T01:33:57.724Z,95882
2015-06-16T01:34:16.396Z,95881
2015-06-16T01:34:34.755Z,95882
2015-06-16T01:34:53.693Z,95879
2015-06-16T01:35:12.381Z,95882
2015-06-16T01:35:30.725Z,95885
2015-06-16T01:35:49.037Z,95882
2015-06-16T01:36:07.416Z,95879
2015-06-16T01:36:26.151Z,95873
2015-06-16T01:36:44.807Z,95875
2015-06-16T01:37:03.199Z,95884
2015-06-16T01:37:21.528Z,95875
2015-06-16T01:37:40.324Z,95884
2015-06-16T01:37:58.793Z,95875
2015-06-16T01:38:17.483Z,95878
2015-06-16T01:38:36.092Z,95874
2015-06-16T01:38:54.530Z,95888
2015-06-16T01:39:13.111Z,95885
2015-06-16T01:39:31.533Z,95879
2015-06-16T01:39:49.611Z,95876
2015-06-16T01:40:07.939Z,95888
2015-06-16T01:40:26.300Z,95884
2015-06-16T01:40:44.910Z,95877
2015-06-16T01:41:03.378Z,95881
2015-06-16T01:41:21.116Z,95881
2015-06-16T01:41:39.725Z,95884
2015-06-16T01:41:58.241Z,95879
2015-06-16T01:42:16.772Z,95884
2015-06-16T01:42:35.446Z,95882
2015-06-16T01:42:54.180Z,95876
2015-06-16T01:43:12.118Z,95881
2015-06-16T01:43:30.808Z,95872
2015-06-16T01:43:49.183Z,95865
2015-06-16T01:44:07.464Z,95876
2015-06-16T01:44:25.839Z,95873
2015-06-16T01:44:44.654Z,95870
2015-06-16T01:45:03.045Z,95870
2015-06-16T01:45:21.607Z,95868
2015-06-16T01:45:40.047Z,95869
2015-06-16T01:45:58.578Z,95871
2015-06-16T01:46:16.515Z,95868
2015-06-16T01:46:34.812Z,95867
2015-06-16T01:46:53.159Z,95873
2015-06-16T01:47:11.643Z,95871
2015-06-16T01:47:30.175Z,95883
2015-06-16T01:47:48.567Z,95869
2015-06-16T01:48:06.333Z,95867
2015-06-16T01:48:25.052Z,95867
2015-06-16T01:48:43.395Z,95870
2015-06-16T01:49:01.930Z,95872
2015-06-16T01:49:20.320Z,95874
2015-06-16T01:49:38.805Z,95871
2015-06-16T01:49:57.213Z,95867
2015-06-16T01:50:15.025Z,95868
2015-06-16T01:50:33.338Z,95873
2015-06-16T01:50:51.760Z,95873
2015-06-16T01:51:10.028Z,95863
2015-06-16T01:51:28.513Z,95870
2015-06-16T01:51:47.044Z,95867
2015-06-16T01:52:05.718Z,95866
2015-06-16T01:52:23.624Z,95855
2015-06-16T01:52:42.233Z,95865
2015-06-16T01:53:00.733Z,95862
2015-06-16T01:53:19.079Z,95871
2015-06-16T01:53:37.564Z,95859
2015-06-16T01:53:55.939Z,95862
2015-06-16T01:54:14.270Z,95856
2015-06-16T01:54:32.754Z,95870
2015-06-16T01:54:51.207Z,95867
2015-06-16T01:55:09.660Z,95872
2015-06-16T01:55:27.273Z,95857
2015-06-16T01:55:45.773Z,95869
2015-06-16T01:56:04.163Z,95857
2015-06-16T01:56:22.650Z,95868
2015-06-16T01:56:41.165Z,95870
2015-06-16T01:56:59.493Z,95864
2015-06-16T01:57:17.931Z,95857
2015-06-16T01:57:36.481Z,95868
2015-06-16T01:57:54.918Z,95873
2015-06-16T01:58:12.746Z,95853
2015-06-16T01:58:31.280Z,95854
2015-06-16T01:58:49.639Z,95866
2015-06-16T01:59:07.420Z,95862
2015-06-16T01:59:26.295Z,95853
2015-06-16T01:59:44.735Z,95864
2015-06-16T02:00:03.032Z,95864
2015-06-16T02:00:21.907Z,95872
2015-06-16T02:00:40.316Z,95863
2015-06-16T02:00:58.785Z,95864
2015-06-16T02:01:17.285Z,95876
2015-06-16T02:01:35.847Z,95864
2015-06-16T02:01:54.147Z,95870
2015-06-16T02:02:12.678Z,95874
2015-06-16T02:02:30.491Z,95861
2015-06-16T02:02:48.774Z,95856
2015-06-16T02:03:07.337Z,95862
2015-06-16T02:03:26.149Z,95868
2015-06-16T02:03:44.793Z,95863
2015-06-16T02:04:03.621Z,95866
2015-06-16T02:04:22.230Z,95868
2015-06-16T02:04:40.730Z,95868
2015-06-16T02:04:59.310Z,95869
2015-06-16T02:05:17.373Z,95868
2015-06-16T02:05:36.232Z,95871
2015-06-16T02:05:54.857Z,95876
2015-06-16T02:06:13.437Z,95871
2015-06-16T02:06:31.734Z,95873
2015-06-16T02:06:50.328Z,95869
2015-06-16T02:07:08.628Z,95874
2015-06-16T02:07:27.050Z,95871
2015-06-16T02:07:45.393Z,95871
2015-06-16T02:08:03.909Z,95868
2015-06-16T02:08:22.006Z,95864
2015-06-16T02:08:40.475Z,95871
2015-06-16T02:08:58.850Z,95864
2015-06-16T02:09:17.289Z,95876
2015-06-16T02:09:35.695Z,95868
2015-06-16T02:09:53.961Z,95871
2015-06-16T02:10:12.273Z,95868
2015-06-16T02:10:30.823Z,95866
2015-06-16T02:10:49.542Z,95874
2015-06-16T02:11:07.933Z,95876
2015-06-16T02:11:26.403Z,95875
2015-06-16T02:11:44.528Z,95877
2015-06-16T02:12:02.888Z,95872
2015-06-16T02:12:21.403Z,95866
2015-06-16T02:12:39.766Z,95875
2015-06-16T02:12:58.469Z,95877
2015-06-16T02:13:16.969Z,95883
2015-06-16T02:13:35.440Z,95876
2015-06-16T02:13:53.799Z,95882
2015-06-16T02:14:12.283Z,95874
2015-06-16T02:14:30.690Z,95872
2015-06-16T02:14:49.254Z,95882
2015-06-16T02:15:07.739Z,95876
2015-06-16T02:15:26.176Z,95875
2015-06-16T02:15:44.523Z,95881
2015-06-16T02:16:02.851Z,95881
2015-06-16T02:16:21.210Z,95879
2015-06-16T02:16:39.195Z,95880
2015-06-16T02:16:57.634Z,95887
2015-06-16T02:17:15.915Z,95888
2015-06-16T02:17:34.322Z,95894
2015-06-16T02:17:52.683Z,95885
2015-06-16T02:18:11.261Z,95882
2015-06-16T02:18:29.746Z,95871
2015-06-16T02:18:48.183Z,95882
2015-06-16T02:19:06.811Z,95879
2015-06-16T02:19:25.327Z,95885
2015-06-16T02:19:43.702Z,95873
2015-06-16T02:20:02.094Z,95879
2015-06-16T02:20:20.641Z,95890
2015-06-16T02:20:39.110Z,95879
2015-06-16T02:20:57.797Z,95882
2015-06-16T02:21:16.285Z,95882
2015-06-16T02:21:34.582Z,95882
2015-06-16T02:21:53.144Z,95885
2015-06-16T02:22:11.647Z,95885
2015-06-16T02:22:30.147Z,95883
2015-06-16T02:22:48.569Z,95879
2015-06-16T02:23:06.897Z,95893
2015-06-16T02:23:25.524Z,95882
2015-06-16T02:23:44.009Z,95885
2015-06-16T02:24:02.477Z,95888
2015-06-16T02:24:20.840Z,95880
2015-06-16T02:24:38.590Z,95875
2015-06-16T02:24:57.027Z,95883
2015-06-16T02:25:15.746Z,95880
2015-06-16T02:25:34.232Z,95885
2015-06-16T02:25:52.592Z,95891
2015-06-16T02:26:10.889Z,95886
2015-06-16T02:26:29.267Z,95892
2015-06-16T02:26:47.829Z,95884
2015-06-16T02:27:06.313Z,95881
2015-06-16T02:27:24.876Z,95883
2015-06-16T02:27:43.019Z,95878
2015-06-16T02:28:01.394Z,95878
2015-06-16T02:28:19.659Z,95881
2015-06-16T02:28:38.303Z,95878
2015-06-16T02:28:56.584Z,95881
2015-06-16T02:29:15.115Z,95884
2015-06-16T02:29:33.537Z,95890
2015-06-16T02:29:51.945Z,95887
2015-06-16T02:30:10.367Z,95887
2015-06-16T02:30:28.836Z,95890
2015-06-16T02:30:47.291Z,95884
2015-06-16T02:31:05.682Z,95884
2015-06-16T02:31:24.182Z,95892
2015-06-16T02:31:42.541Z,95887
2015-06-16T02:32:00.888Z,95881
2015-06-16T02:32:18.841Z,95883
2015-06-16T02:32:37.279Z,95879
2015-06-16T02:32:56.109Z,95894
2015-06-16T02:33:14.531Z,95882
2015-06-16T02:33:32.952Z,95891
2015-06-16T02:33:51.452Z,95890
2015-06-16T02:34:09.924Z,95888
2015-06-16T02:34:28.487Z,95883
2015-06-16T02:34:47.190Z,95883
2015-06-16T02:35:05.740Z,95878
2015-06-16T02:35:24.333Z,95881
2015-06-16T02:35:42.912Z,95881
2015-06-16T02:36:01.333Z,95893
2015-06-16T02:36:19.914Z,95879
2015-06-16T02:36:37.867Z,95887
2015-06-16T02:36:56.210Z,95878
2015-06-16T02:37:14.557Z,95891
2015-06-16T02:37:33.026Z,95891
2015-06-16T02:37:51.542Z,95880
2015-06-16T02:38:10.338Z,95896
2015-06-16T02:38:28.949Z,95888
2015-06-16T02:38:46.777Z,95877
2015-06-16T02:39:05.543Z,95886
2015-06-16T02:39:23.967Z,95894
2015-06-16T02:39:42.592Z,95897
2015-06-16T02:40:01.139Z,95883
2015-06-16T02:40:19.436Z,95889
2015-06-16T02:40:37.924Z,95887
2015-06-16T02:40:56.470Z,95884
2015-06-16T02:41:14.924Z,95895
2015-06-16T02:41:33.629Z,95883
2015-06-16T02:41:52.129Z,95888
2015-06-16T02:42:10.410Z,95882
2015-06-16T02:42:28.832Z,95880
2015-06-16T02:42:47.319Z,95891
2015-06-16T02:43:05.600Z,95878
2015-06-16T02:43:23.304Z,95880
2015-06-16T02:43:41.774Z,95885
2015-06-16T02:44:00.352Z,95884
2015-06-16T02:44:18.931Z,95881
2015-06-16T02:44:37.651Z,95879
2015-06-16T02:44:56.339Z,95882
2015-06-16T02:45:14.839Z,95885
2015-06-16T02:45:32.667Z,95887
2015-06-16T02:45:51.155Z,95876
2015-06-16T02:46:09.796Z,95882
2015-06-16T02:46:28.374Z,95879
2015-06-16T02:46:46.780Z,95891
2015-06-16T02:47:05.547Z,95882
2015-06-16T02:47:23.922Z,95879
2015-06-16T02:47:42.453Z,95893
2015-06-16T02:48:00.862Z,95888
2015-06-16T02:48:19.362Z,95879
2015-06-16T02:48:37.784Z,95882
2015-06-16T02:48:56.206Z,95879
2015-06-16T02:49:14.678Z,95889
2015-06-16T02:49:32.990Z,95886
2015-06-16T02:49:51.381Z,95879
2015-06-16T02:50:09.836Z,95887
2015-06-16T02:50:28.149Z,95888
2015-06-16T02:50:46.789Z,95888
2015-06-16T02:51:05.242Z,95879
2015-06-16T02:51:23.979Z,95888
2015-06-16T02:51:42.619Z,95876
2015-06-16T02:52:01.385Z,95885
2015-06-16T02:52:19.748Z,95882
2015-06-16T02:52:38.295Z,95882
2015-06-16T02:52:56.670Z,95879
2015-06-16T02:53:15.327Z,95885
2015-06-16T02:53:33.860Z,95877
2015-06-16T02:53:52.157Z,95886
2015-06-16T02:54:10.438Z,95880
2015-06-16T02:54:28.799Z,95877
2015-06-16T02:54:47.206Z,95883
2015-06-16T02:55:05.877Z,95886
2015-06-16T02:55:24.252Z,95875
2015-06-16T02:55:42.536Z,95878
2015-06-16T02:56:01.004Z,95875
2015-06-16T02:56:19.348Z,95888
2015-06-16T02:56:37.804Z,95875
2015-06-16T02:56:55.507Z,95880
2015-06-16T02:57:14.007Z,95873
2015-06-16T02:57:32.304Z,95872
2015-06-16T02:57:50.839Z,95880
2015-06-16T02:58:09.229Z,95872
2015-06-16T02:58:27.448Z,95884
2015-06-16T02:58:45.747Z,95881
2015-06-16T02:59:03.778Z,95872
2015-06-16T02:59:22.294Z,95885
2015-06-16T02:59:40.278Z,95876
2015-06-16T02:59:58.702Z,95881
2015-06-16T03:00:17.202Z,95889
2015-06-16T03:00:35.874Z,95886
2015-06-16T03:00:54.846Z,95875
2015-06-16T03:01:13.346Z,95880
2015-06-16T03:01:31.658Z,95884
2015-06-16T03:01:50.096Z,95883
2015-06-16T03:02:08.724Z,95886
2015-06-16T03:02:26.786Z,95879
2015-06-16T03:02:45.302Z,95876
2015-06-16T03:03:03.319Z,95882
2015-06-16T03:03:21.788Z,95877
2015-06-16T03:03:40.272Z,95871
2015-06-16T03:03:58.897Z,95882
2015-06-16T03:04:17.462Z,95885
2015-06-16T03:04:35.759Z,95882
2015-06-16T03:04:53.587Z,95882
2015-06-16T03:05:11.527Z,95880
2015-06-16T03:05:29.496Z,95882
2015-06-16T03:05:47.918Z,95879
2015-06-16T03:06:06.199Z,95880
2015-06-16T03:06:24.951Z,95879
2015-06-16T03:06:42.764Z,95887
2015-06-16T03:07:01.092Z,95878
2015-06-16T03:07:19.423Z,95884
2015-06-16T03:07:37.736Z,95884
2015-06-16T03:07:56.282Z,95881
2015-06-16T03:08:14.751Z,95874
2015-06-16T03:08:33.175Z,95877
2015-06-16T03:08:51.644Z,95877
2015-06-16T03:09:09.675Z,95871
2015-06-16T03:09:28.147Z,95880
2015-06-16T03:09:46.491Z,95880
2015-06-16T03:10:04.866Z,95882
2015-06-16T03:10:23.381Z,95882
2015-06-16T03:10:41.789Z,95879
2015-06-16T03:11:00.133Z,95885
2015-06-16T03:11:18.586Z,95882
2015-06-16T03:11:37.011Z,95873
2015-06-16T03:11:55.386Z,95870
2015-06-16T03:12:13.746Z,95878
2015-06-16T03:12:32.152Z,95873
2015-06-16T03:12:50.498Z,95889
2015-06-16T03:13:08.779Z,95884
2015-06-16T03:13:27.076Z,95887
2015-06-16T03:13:45.016Z,95882
2015-06-16T03:14:03.547Z,95884
2015-06-16T03:14:22.126Z,95878
2015-06-16T03:14:40.782Z,95880
2015-06-16T03:14:59.143Z,95886
2015-06-16T03:15:17.440Z,95882
2015-06-16T03:15:35.768Z,95876
2015-06-16T03:15:54.131Z,95887
2015-06-16T03:16:12.412Z,95878
2015-06-16T03:16:30.912Z,95878
2015-06-16T03:16:49.271Z,95883
2015-06-16T03:17:07.742Z,95878
2015-06-16T03:17:26.258Z,95878
2015-06-16T03:17:44.695Z,95884
2015-06-16T03:18:03.136Z,95872
2015-06-16T03:18:21.448Z,95883
2015-06-16T03:18:39.948Z,95873
2015-06-16T03:18:58.370Z,95876
2015-06-16T03:19:16.325Z,95873
2015-06-16T03:19:34.747Z,95879
2015-06-16T03:19:53.263Z,95881
2015-06-16T03:20:11.843Z,95870
2015-06-16T03:20:30.249Z,95876
2015-06-16T03:20:48.608Z,95876
2015-06-16T03:21:06.983Z,95876
2015-06-16T03:21:25.438Z,95874
2015-06-16T03:21:43.892Z,95888
2015-06-16T03:22:02.313Z,95878
2015-06-16T03:22:20.691Z,95875
2015-06-16T03:22:39.395Z,95880
2015-06-16T03:22:57.910Z,95884
2015-06-16T03:23:16.207Z,95877
2015-06-16T03:23:34.866Z,95884
2015-06-16T03:23:53.413Z,95896
2015-06-16T03:24:11.851Z,95883
2015-06-16T03:24:29.603Z,95881
2015-06-16T03:24:48.040Z,95887
2015-06-16T03:25:06.353Z,95887
2015-06-16T03:25:25.040Z,95887
2015-06-16T03:25:43.324Z,95872
2015-06-16T03:26:01.340Z,95895
2015-06-16T03:26:19.762Z,95892
2015-06-16T03:26:38.092Z,95886
2015-06-16T03:26:56.514Z,95892
2015-06-16T03:27:14.326Z,95890
2015-06-16T03:27:32.936Z,95895
2015-06-16T03:27:51.329Z,95890
2015-06-16T03:28:09.876Z,95890
2015-06-16T03:28:28.408Z,95893
2015-06-16T03:28:46.988Z,95890
2015-06-16T03:29:05.363Z,95902
2015-06-16T03:29:23.660Z,95902
2015-06-16T03:29:42.144Z,95888
2015-06-16T03:30:00.663Z,95889
2015-06-16T03:30:19.069Z,95889
2015-06-16T03:30:37.741Z,95895
2015-06-16T03:30:56.118Z,95889
2015-06-16T03:31:14.430Z,95891
2015-06-16T03:31:33.024Z,95893
2015-06-16T03:31:51.493Z,95887
2015-06-16T03:32:09.870Z,95898
2015-06-16T03:32:28.495Z,95895
2015-06-16T03:32:46.823Z,95904
2015-06-16T03:33:05.310Z,95900
2015-06-16T03:33:23.826Z,95890
2015-06-16T03:33:42.201Z,95896
2015-06-16T03:34:00.482Z,95893
2015-06-16T03:34:19.032Z,95899
2015-06-16T03:34:37.360Z,95896
2015-06-16T03:34:55.969Z,95897
2015-06-16T03:35:14.800Z,95895
2015-06-16T03:35:33.190Z,95901
2015-06-16T03:35:51.503Z,95890
2015-06-16T03:36:09.956Z,95901
2015-06-16T03:36:28.505Z,95898
2015-06-16T03:36:47.005Z,95893
2015-06-16T03:37:05.380Z,95896
2015-06-16T03:37:23.976Z,95896
2015-06-16T03:37:42.367Z,95893
2015-06-16T03:38:00.711Z,95902
2015-06-16T03:38:19.211Z,95893
2015-06-16T03:38:37.807Z,95899
2015-06-16T03:38:56.416Z,95896
2015-06-16T03:39:14.947Z,95895
2015-06-16T03:39:33.231Z,95900
2015-06-16T03:39:51.747Z,95897
2015-06-16T03:40:10.091Z,95892
2015-06-16T03:40:28.560Z,95895
2015-06-16T03:40:46.859Z,95897
2015-06-16T03:41:05.250Z,95905
2015-06-16T03:41:23.141Z,95910
2015-06-16T03:41:41.815Z,95896
2015-06-16T03:42:00.158Z,95893
2015-06-16T03:42:18.658Z,95903
2015-06-16T03:42:37.330Z,95901
2015-06-16T03:42:56.020Z,95898
2015-06-16T03:43:14.520Z,95909
2015-06-16T03:43:32.942Z,95895
2015-06-16T03:43:51.226Z,95898
2015-06-16T03:44:09.741Z,95897
2015-06-16T03:44:28.132Z,95895
2015-06-16T03:44:46.648Z,95898
2015-06-16T03:45:04.931Z,95894
2015-06-16T03:45:23.462Z,95894
2015-06-16T03:45:41.790Z,95895
2015-06-16T03:46:00.090Z,95898
2015-06-16T03:46:18.418Z,95898
2015-06-16T03:46:36.793Z,95902
2015-06-16T03:46:55.481Z,95902
2015-06-16T03:47:13.842Z,95896
2015-06-16T03:47:32.217Z,95896
2015-06-16T03:47:50.998Z,95899
2015-06-16T03:48:09.376Z,95899
2015-06-16T03:48:27.689Z,95899
2015-06-16T03:48:46.095Z,95904
2015-06-16T03:49:04.001Z,95896
2015-06-16T03:49:22.316Z,95899
2015-06-16T03:49:40.722Z,95900
2015-06-16T03:49:59.222Z,95900
2015-06-16T03:50:17.772Z,95898
2015-06-16T03:50:36.366Z,95894
2015-06-16T03:50:54.350Z,95900
2015-06-16T03:51:12.663Z,95900
2015-06-16T03:51:31.290Z,95891
2015-06-16T03:51:49.774Z,95897
2015-06-16T03:52:08.071Z,95897
2015-06-16T03:52:26.527Z,95897
2015-06-16T03:52:44.933Z,95902
2015-06-16T03:53:03.371Z,95902
2015-06-16T03:53:21.168Z,95896
2015-06-16T03:53:39.998Z,95891
2015-06-16T03:53:58.467Z,95894
2015-06-16T03:54:17.138Z,95894
2015-06-16T03:54:35.890Z,95891
2015-06-16T03:54:54.172Z,95891
2015-06-16T03:55:12.640Z,95901
2015-06-16T03:55:31.187Z,95899
2015-06-16T03:55:49.847Z,95902
2015-06-16T03:56:08.268Z,95899
2015-06-16T03:56:26.690Z,95898
2015-06-16T03:56:45.287Z,95902
2015-06-16T03:57:03.881Z,95901